Santa Clarita, CA (91390)

6:57 PM PDT on April 27, 2017 (GMT -0700)
Agua Dulce, CA | | Change Station
Active Advisory: High Wind Warning Active Notice: Public Information Statement

Elev 2580 ft 34.53 °N, 118.36 °W | Updated 6 seconds ago

Mostly Cloudy
Mostly Cloudy
64.8 °F
Feels Like 64.8 °F
N
0.0
Wind Variable Wind from SW
Gusts 27.0 mph

Today
High -- | Low -- °F
--% Chance of Precip.
Yesterday
High -- | Low -- °F
Precip. -- in
Pressure 29.81 in
Visibility 10.0 miles
Clouds Clear
Dew Point 40 °F
Humidity 40%
Rainfall 0.00 in
Snow Depth Not available.
6:07 AM 7:35 PM
Waxing Crescent, 4% visible
METAR KWHP 272355Z 30010G20KT 10SM SKC 25/02 A2981
Pressure 29.81 in
Visibility 10.0 miles
Clouds Clear
Dew Point 40 °F
Humidity 40%
Rainfall 0.00 in
Snow Depth Not available.
6:07 AM 7:35 PM
Waxing Crescent, 4% visible
METAR KWHP 272355Z 30010G20KT 10SM SKC 25/02 A2981

Get Your Daily Forecast Email!

Thanks for signing up!

Be on the lookout for a verification email in your inbox.

You'll start receiving severe weather alerts in your inbox..

×

10-Day Weather Forecast

Almanac

Astronomy

Apr. 27, 2017 Rise Set
Actual Time
Civil Twilight
Nautical Twilight
Astronomical Twilight
Moon
Length of Visible Light
Length of Day
Tomorrow will be .
, % of the Moon is Illuminated

Today's Extremes

State Highs State Lows

Community

WunderPhotos

WunderBlog® & News

Nearby

Air Quality

  Air Quality AQ Index Pollutant
Not available.

Snow Depth

Station Depth Elevation

Earthquake Activity

City Distance Mag. Time & Date
Minimum magnitude displayed is 2.5.

Coastal Water Temperatures

Place Temperature

Stations

Nearby Weather Stations

Station Location Temp. Windchill Dew Point Humidity Wind Precip. Elev Updated Type
                   

Watches & Warnings

High Wind Warning
Issued: 6:43 PM PDT Apr. 27, 2017 – National Weather Service

... High Wind Warning remains in effect until 9 am PDT Friday...

* winds and timing... areas of northwest to north winds will
increase to 25 to 40 mph with gusts to 65 mph through this
evening and will continue through early Friday morning. Winds
will be strongest through the Interstate 5 corridor and higher
peaks. Winds will likely weaken some but may remain gusty
through early Saturday while gradually turning to the northeast.

* Impacts... .gusty winds will make driving difficult, especially
for drivers of high profile vehicles. Major roads that will be
affected include Interstate 5 and Highway 14.

Precautionary/preparedness actions...

A High Wind Warning means that damaging high winds of 58 mph or
greater are likely or imminent. Secure all loose outdoor
furniture in advance of the onset of strong winds. Monitor the
latest forecasts on NOAA Weather Radio or your favorite media
source.